createdAt,value
2023-02-24T00:01:37.693Z,5.78
2023-02-24T00:04:08.840Z,5.00
2023-02-24T00:06:38.753Z,4.97
2023-02-24T00:09:10.044Z,5.90
2023-02-24T00:11:41.723Z,5.30
2023-02-24T00:14:11.663Z,5.70
2023-02-24T00:16:39.779Z,6.95
2023-02-24T00:19:08.134Z,7.30
2023-02-24T00:21:37.399Z,6.00
2023-02-24T00:24:05.497Z,6.30
2023-02-24T00:26:33.508Z,5.90
2023-02-24T00:29:06.100Z,5.93
2023-02-24T00:31:34.133Z,7.03
2023-02-24T00:34:03.166Z,7.03
2023-02-24T00:36:34.220Z,6.22
2023-02-24T00:39:03.577Z,5.90
2023-02-24T00:41:33.835Z,6.57
2023-02-24T00:44:06.648Z,6.18
2023-02-24T00:46:36.808Z,5.75
2023-02-24T00:49:06.920Z,4.55
2023-02-24T00:51:38.722Z,5.68
2023-02-24T00:54:06.952Z,6.00
2023-02-24T00:56:35.715Z,4.88
2023-02-24T00:59:05.038Z,5.57
2023-02-24T01:01:35.470Z,4.65
2023-02-24T01:04:11.126Z,5.28
2023-02-24T01:06:41.924Z,3.95
2023-02-24T01:09:13.656Z,5.55
2023-02-24T01:11:59.992Z,4.30
2023-02-24T01:14:32.662Z,5.40
2023-02-24T01:17:01.622Z,4.72
2023-02-24T01:19:32.341Z,4.78
2023-02-24T01:22:01.122Z,4.45
2023-02-24T01:24:30.036Z,5.07
2023-02-24T01:26:58.144Z,4.57
2023-02-24T01:29:26.276Z,4.72
2023-02-24T01:31:58.409Z,5.20
2023-02-24T01:34:27.005Z,4.90
2023-02-24T01:36:55.302Z,5.32
2023-02-24T01:39:23.756Z,5.03
2023-02-24T01:41:52.977Z,4.78
2023-02-24T01:44:54.544Z,5.50
2023-02-24T01:47:23.689Z,5.07
2023-02-24T01:49:55.888Z,5.00
2023-02-24T01:52:26.210Z,4.72
2023-02-24T01:54:59.045Z,5.47
2023-02-24T01:57:30.968Z,5.18
2023-02-24T02:00:10.224Z,4.88
2023-02-24T02:02:42.259Z,4.47
2023-02-24T02:05:11.757Z,5.05
2023-02-24T02:07:42.034Z,4.97
2023-02-24T02:10:10.894Z,5.85
2023-02-24T02:12:44.760Z,5.82
2023-02-24T02:15:14.506Z,5.78
2023-02-24T02:20:55.728Z,4.80
2023-02-24T02:23:54.525Z,5.95
2023-02-24T02:26:42.863Z,6.82
2023-02-24T02:29:32.740Z,5.70
2023-02-24T02:32:18.602Z,4.82
2023-02-24T02:34:56.219Z,4.78
2023-02-24T02:37:32.915Z,4.40
2023-02-24T02:40:16.106Z,4.35
2023-02-24T02:42:48.406Z,4.57
2023-02-24T02:45:24.416Z,4.28
2023-02-24T02:47:55.697Z,4.57
2023-02-24T02:50:28.492Z,5.13
2023-02-24T02:53:00.780Z,3.65
2023-02-24T02:55:36.768Z,4.45
2023-02-24T02:58:09.113Z,4.82
2023-02-24T03:00:42.724Z,4.97
2023-02-24T03:03:16.267Z,4.65
2023-02-24T03:05:51.284Z,4.38
2023-02-24T03:08:25.706Z,4.07
2023-02-24T03:10:57.853Z,4.30
2023-02-24T03:13:28.094Z,4.95
2023-02-24T03:16:00.534Z,4.00
2023-02-24T03:18:32.526Z,4.63
2023-02-24T03:21:08.422Z,4.18
2023-02-24T03:23:38.760Z,5.00
2023-02-24T03:26:17.610Z,4.40
2023-02-24T03:28:54.208Z,3.97
2023-02-24T03:31:29.269Z,3.45
2023-02-24T03:34:03.709Z,3.80
2023-02-24T03:36:34.552Z,4.18
2023-02-24T03:39:05.254Z,3.67
2023-02-24T03:41:41.931Z,4.28
2023-02-24T03:44:12.073Z,3.47
2023-02-24T03:46:43.034Z,4.45
2023-02-24T03:49:13.964Z,3.83
2023-02-24T03:51:45.412Z,4.05
2023-02-24T03:54:30.985Z,3.38
2023-02-24T03:57:14.586Z,4.07
2023-02-24T03:59:52.834Z,3.78
2023-02-24T04:02:23.883Z,3.60
2023-02-24T04:04:58.182Z,3.88
2023-02-24T04:07:38.630Z,3.53
2023-02-24T04:10:12.695Z,3.83
2023-02-24T04:12:47.318Z,3.22
2023-02-24T04:15:21.614Z,3.60
2023-02-24T04:17:52.293Z,3.53
2023-02-24T04:20:23.652Z,2.97
2023-02-24T04:22:59.975Z,3.08
2023-02-24T04:25:28.324Z,3.03
2023-02-24T04:27:59.922Z,3.40
2023-02-24T04:30:32.131Z,2.78
2023-02-24T04:33:00.509Z,3.55
2023-02-24T04:35:28.792Z,3.25
2023-02-24T04:37:58.796Z,2.80
2023-02-24T04:40:27.139Z,3.58
2023-02-24T04:42:55.215Z,2.85
2023-02-24T04:45:26.089Z,3.42
2023-02-24T04:48:01.369Z,3.28
2023-02-24T04:50:30.925Z,2.58
2023-02-24T04:53:02.054Z,2.92
2023-02-24T04:55:33.173Z,2.80
2023-02-24T04:58:01.620Z,3.22
2023-02-24T05:00:35.644Z,3.45
2023-02-24T05:03:05.032Z,2.97
2023-02-24T05:05:34.170Z,3.13
2023-02-24T05:08:05.132Z,2.80
2023-02-24T05:10:38.175Z,3.17
2023-02-24T05:13:07.590Z,3.00
2023-02-24T05:15:35.707Z,3.00
2023-02-24T05:18:08.034Z,2.75
2023-02-24T05:20:55.857Z,3.00
2023-02-24T05:23:28.439Z,2.83
2023-02-24T05:25:56.095Z,2.72
2023-02-24T05:28:24.165Z,2.85
2023-02-24T05:30:53.993Z,3.33
2023-02-24T05:33:22.617Z,3.28
2023-02-24T05:35:51.406Z,2.40
2023-02-24T05:38:20.088Z,2.63
2023-02-24T05:40:49.663Z,2.97
2023-02-24T05:43:18.803Z,2.50
2023-02-24T05:45:47.008Z,3.33
2023-02-24T05:48:15.665Z,2.97
2023-02-24T05:50:46.588Z,3.83
2023-02-24T05:53:14.336Z,3.45
2023-02-24T05:55:43.534Z,2.95
2023-02-24T05:58:13.117Z,2.95
2023-02-24T06:00:45.863Z,2.90
2023-02-24T06:03:17.819Z,3.00
2023-02-24T06:05:53.449Z,3.30
2023-02-24T06:08:24.775Z,3.22
2023-02-24T06:10:53.734Z,2.90
2023-02-24T06:13:22.780Z,2.60
2023-02-24T06:18:44.511Z,3.20
2023-02-24T06:21:13.762Z,2.38
2023-02-24T06:23:41.625Z,2.83
2023-02-24T06:26:12.924Z,2.58
2023-02-24T06:28:43.636Z,2.83
2023-02-24T06:31:12.095Z,2.92
2023-02-24T06:33:40.179Z,3.30
2023-02-24T06:36:09.856Z,2.70
2023-02-24T06:41:11.090Z,2.92
2023-02-24T06:43:39.734Z,2.50
2023-02-24T06:46:09.402Z,2.05
2023-02-24T06:51:07.315Z,2.90
2023-02-24T06:53:35.979Z,2.67
2023-02-24T06:56:15.151Z,2.97
2023-02-24T06:58:45.032Z,2.60
2023-02-24T07:01:16.013Z,2.90
2023-02-24T07:04:00.234Z,3.20
2023-02-24T07:06:29.451Z,3.30
2023-02-24T07:08:59.517Z,2.35
2023-02-24T07:11:28.837Z,2.70
2023-02-24T07:13:57.565Z,2.67
2023-02-24T07:16:28.815Z,2.50
2023-02-24T07:18:57.698Z,3.33
2023-02-24T07:21:30.088Z,2.90
2023-02-24T07:23:59.436Z,2.67
2023-02-24T07:26:30.461Z,2.85
2023-02-24T07:28:58.437Z,3.47
2023-02-24T07:31:27.590Z,2.70
2023-02-24T07:33:57.197Z,3.50
2023-02-24T07:36:30.057Z,3.10
2023-02-24T07:38:59.857Z,4.43
2023-02-24T07:41:28.730Z,3.25
2023-02-24T07:43:59.885Z,3.72
2023-02-24T07:46:29.972Z,3.78
2023-02-24T07:49:00.167Z,3.72
2023-02-24T07:51:29.598Z,4.38
2023-02-24T07:53:59.417Z,4.72
2023-02-24T07:56:28.770Z,4.53
2023-02-24T07:59:00.238Z,3.97
2023-02-24T08:01:30.729Z,3.88
2023-02-24T08:04:01.439Z,4.70
2023-02-24T08:06:37.902Z,4.72
2023-02-24T08:09:21.535Z,5.18
2023-02-24T08:11:52.526Z,5.63
2023-02-24T08:14:23.473Z,5.05
2023-02-24T08:16:59.520Z,4.65
2023-02-24T08:19:32.839Z,6.85
2023-02-24T08:22:19.411Z,8.48
2023-02-24T08:24:50.123Z,8.40
2023-02-24T08:27:20.292Z,7.80
2023-02-24T08:29:59.759Z,5.10
2023-02-24T08:32:34.089Z,5.22
2023-02-24T08:35:04.694Z,7.75
2023-02-24T08:37:40.731Z,6.72
2023-02-24T08:40:33.545Z,6.53
2023-02-24T08:43:16.032Z,5.50
2023-02-24T08:45:45.732Z,7.25
2023-02-24T08:50:55.652Z,4.65
2023-02-24T08:53:28.132Z,6.10
2023-02-24T08:55:55.821Z,5.07
2023-02-24T08:58:27.076Z,6.18
2023-02-24T09:00:57.017Z,4.88
2023-02-24T09:03:33.542Z,4.50
2023-02-24T09:06:05.579Z,6.25
2023-02-24T09:08:34.898Z,4.45
2023-02-24T09:11:08.049Z,4.88
2023-02-24T09:13:38.295Z,4.40
2023-02-24T09:16:06.790Z,3.80
2023-02-24T09:18:39.645Z,10.70
2023-02-24T09:21:36.954Z,14.45
2023-02-24T09:24:07.512Z,22.65
2023-02-24T09:26:43.207Z,5.60
2023-02-24T09:29:33.882Z,8.93
2023-02-24T09:32:13.513Z,10.93
2023-02-24T09:37:24.951Z,15.32
2023-02-24T09:40:20.004Z,16.95
2023-02-24T09:42:47.728Z,4.93
2023-02-24T09:45:33.617Z,15.80
2023-02-24T09:48:10.475Z,7.57
2023-02-24T09:51:03.149Z,4.07
2023-02-24T09:53:41.349Z,5.85
2023-02-24T09:56:22.332Z,6.45
2023-02-24T09:58:58.552Z,5.53
2023-02-24T10:01:43.086Z,5.25
2023-02-24T10:04:27.414Z,5.47
2023-02-24T10:07:03.777Z,6.00
2023-02-24T10:09:35.551Z,4.35
2023-02-24T10:12:12.233Z,7.38
2023-02-24T10:14:51.115Z,5.90
2023-02-24T10:17:31.008Z,4.13
2023-02-24T10:22:51.882Z,7.68
2023-02-24T10:25:41.504Z,8.63
2023-02-24T10:28:23.730Z,10.05
2023-02-24T10:31:10.144Z,8.55
2023-02-24T10:33:45.652Z,6.50
2023-02-24T10:36:17.175Z,7.45
2023-02-24T10:38:47.427Z,7.07
2023-02-24T10:41:15.944Z,8.52
2023-02-24T10:43:54.759Z,9.00
2023-02-24T10:46:41.025Z,7.78
2023-02-24T10:49:17.040Z,14.45
2023-02-24T10:51:52.829Z,7.10
2023-02-24T10:54:45.244Z,5.20
2023-02-24T10:57:23.138Z,7.07
2023-02-24T11:00:14.434Z,7.43
2023-02-24T11:03:07.009Z,11.75
2023-02-24T11:05:44.427Z,12.93
2023-02-24T11:08:36.376Z,10.30
2023-02-24T11:11:20.620Z,9.35
2023-02-24T11:14:08.125Z,7.07
2023-02-24T11:17:08.007Z,7.50
2023-02-24T11:19:42.828Z,4.78
2023-02-24T11:22:14.648Z,11.68
2023-02-24T11:24:44.646Z,8.32
2023-02-24T11:27:17.432Z,10.60
2023-02-24T11:30:06.208Z,8.02
2023-02-24T11:32:49.889Z,11.52
2023-02-24T11:35:24.612Z,13.13
2023-02-24T11:38:03.658Z,7.15
2023-02-24T11:40:38.283Z,7.53
2023-02-24T11:43:15.085Z,6.10
2023-02-24T11:45:47.485Z,4.57
2023-02-24T11:48:20.741Z,9.40
2023-02-24T11:50:52.204Z,12.25
2023-02-24T11:53:27.743Z,13.93
2023-02-24T11:56:00.989Z,9.35
2023-02-24T11:58:38.758Z,6.63
2023-02-24T12:01:13.507Z,6.18
2023-02-24T12:03:52.022Z,8.15
2023-02-24T12:06:24.223Z,6.38
2023-02-24T12:08:58.478Z,4.90
2023-02-24T12:11:36.381Z,4.65
2023-02-24T12:14:19.452Z,6.38
2023-02-24T12:16:53.300Z,5.38
2023-02-24T12:19:28.592Z,16.90
2023-02-24T12:22:05.795Z,6.15
2023-02-24T12:24:36.346Z,18.15
2023-02-24T12:27:15.239Z,13.57
2023-02-24T12:29:56.011Z,10.77
2023-02-24T12:32:32.253Z,5.00
2023-02-24T12:35:12.184Z,5.85
2023-02-24T12:37:54.965Z,6.50
2023-02-24T12:40:34.765Z,5.00
2023-02-24T12:43:15.880Z,7.43
2023-02-24T12:45:52.789Z,4.35
2023-02-24T12:48:44.005Z,5.45
2023-02-24T12:51:22.121Z,4.10
2023-02-24T12:54:01.034Z,4.93
2023-02-24T12:56:39.147Z,5.03
2023-02-24T12:59:10.195Z,5.55
2023-02-24T13:01:47.763Z,4.72
2023-02-24T13:04:27.770Z,5.32
2023-02-24T13:07:09.814Z,4.93
2023-02-24T13:09:46.605Z,4.18
2023-02-24T13:12:20.308Z,4.97
2023-02-24T13:14:49.706Z,5.40
2023-02-24T13:17:22.922Z,4.93
2023-02-24T13:19:53.047Z,4.82
2023-02-24T13:22:24.400Z,4.85
2023-02-24T13:25:13.331Z,6.35
2023-02-24T13:27:44.185Z,15.32
2023-02-24T13:30:27.487Z,8.38
2023-02-24T13:33:05.664Z,8.63
2023-02-24T13:35:36.661Z,14.45
2023-02-24T13:38:24.303Z,8.48
2023-02-24T13:40:52.474Z,8.25
2023-02-24T13:43:27.117Z,13.73
2023-02-24T13:45:59.240Z,11.85
2023-02-24T13:48:44.805Z,20.27
2023-02-24T13:51:40.823Z,12.50
2023-02-24T13:54:20.148Z,9.57
2023-02-24T13:56:56.346Z,10.90
2023-02-24T13:59:45.504Z,9.32
2023-02-24T14:02:16.498Z,6.70
2023-02-24T14:04:52.607Z,6.57
2023-02-24T14:07:23.363Z,6.20
2023-02-24T14:09:55.920Z,6.45
2023-02-24T14:12:27.132Z,7.07
2023-02-24T14:14:56.157Z,8.65
2023-02-24T14:17:28.433Z,7.80
2023-02-24T14:20:10.192Z,8.68
2023-02-24T14:22:45.109Z,8.63
2023-02-24T14:25:13.916Z,9.75
2023-02-24T14:27:44.272Z,12.33
2023-02-24T14:30:26.042Z,10.18
2023-02-24T14:32:54.342Z,10.00
2023-02-24T14:35:30.079Z,9.25
2023-02-24T14:37:57.771Z,9.30
2023-02-24T14:40:25.831Z,9.18
2023-02-24T14:42:55.325Z,9.52
2023-02-24T14:45:27.092Z,9.55
2023-02-24T14:47:56.453Z,10.20
2023-02-24T14:50:31.242Z,11.90
2023-02-24T14:53:05.004Z,11.02
2023-02-24T14:55:37.008Z,10.38
2023-02-24T14:58:13.213Z,10.93
2023-02-24T15:00:47.173Z,11.20
2023-02-24T15:03:19.869Z,13.50
2023-02-24T15:05:52.154Z,13.02
2023-02-24T15:08:32.960Z,12.55
2023-02-24T15:11:01.230Z,16.50
2023-02-24T15:13:37.303Z,23.70
2023-02-24T15:16:12.521Z,11.93
2023-02-24T15:18:41.946Z,9.15
2023-02-24T15:21:21.849Z,8.63
2023-02-24T15:23:50.412Z,7.72
2023-02-24T15:26:29.564Z,7.60
2023-02-24T15:29:02.442Z,6.93
2023-02-24T15:31:30.861Z,7.75
2023-02-24T15:34:00.890Z,7.32
2023-02-24T15:36:34.123Z,11.05
2023-02-24T15:39:05.064Z,11.98
2023-02-24T15:41:41.217Z,23.17
2023-02-24T15:44:25.772Z,14.57
2023-02-24T15:46:53.535Z,8.73
2023-02-24T15:49:21.280Z,8.82
2023-02-24T15:51:52.935Z,9.57
2023-02-24T15:54:32.978Z,9.30
2023-02-24T15:57:02.967Z,8.00
2023-02-24T15:59:31.001Z,7.75
2023-02-24T16:04:49.583Z,8.55
2023-02-24T16:07:20.760Z,9.25
2023-02-24T16:09:51.651Z,9.75
2023-02-24T16:12:22.552Z,10.10
2023-02-24T16:14:55.951Z,10.27
2023-02-24T16:17:31.572Z,12.10
2023-02-24T16:19:59.537Z,12.73
2023-02-24T16:22:29.848Z,13.15
2023-02-24T16:24:57.535Z,12.80
2023-02-24T16:27:27.576Z,11.93
2023-02-24T16:29:55.243Z,10.77
2023-02-24T16:32:25.756Z,11.38
2023-02-24T16:34:54.120Z,10.88
2023-02-24T16:37:24.915Z,11.30
2023-02-24T16:39:54.959Z,10.60
2023-02-24T16:42:22.642Z,10.30
2023-02-24T16:44:50.650Z,11.10
2023-02-24T16:47:20.756Z,10.63
2023-02-24T16:49:48.425Z,11.55
2023-02-24T16:52:18.934Z,12.13
2023-02-24T16:54:48.411Z,10.88
2023-02-24T16:57:17.535Z,10.85
2023-02-24T16:59:45.272Z,12.27
2023-02-24T17:02:20.835Z,11.07
2023-02-24T17:04:48.596Z,10.80
2023-02-24T17:07:17.444Z,10.73
2023-02-24T17:09:45.664Z,11.15
2023-02-24T17:12:14.248Z,10.32
2023-02-24T17:14:43.261Z,10.23
2023-02-24T17:17:11.892Z,9.85
2023-02-24T17:19:39.978Z,10.18
2023-02-24T17:22:07.678Z,10.15
2023-02-24T17:24:36.266Z,9.23
2023-02-24T17:27:04.367Z,9.05
2023-02-24T17:29:32.125Z,8.27
2023-02-24T17:32:01.386Z,9.05
2023-02-24T17:34:29.172Z,9.20
2023-02-24T17:36:56.832Z,9.70
2023-02-24T17:39:24.509Z,8.30
2023-02-24T17:41:52.196Z,8.07
2023-02-24T17:44:19.862Z,7.50
2023-02-24T17:46:48.665Z,7.78
2023-02-24T17:49:17.769Z,7.65
2023-02-24T17:51:45.511Z,7.90
2023-02-24T17:54:13.380Z,8.02
2023-02-24T17:56:41.033Z,6.30
2023-02-24T17:59:09.230Z,6.10
2023-02-24T18:01:37.357Z,5.30
2023-02-24T18:04:05.026Z,4.10
2023-02-24T18:06:34.034Z,5.28
2023-02-24T18:09:02.267Z,4.30
2023-02-24T18:11:29.940Z,4.78
2023-02-24T18:14:00.344Z,4.10
2023-02-24T18:16:29.200Z,4.43
2023-02-24T18:18:57.098Z,3.90
2023-02-24T18:21:24.868Z,3.72
2023-02-24T18:23:54.877Z,3.78
2023-02-24T18:26:25.357Z,4.07
2023-02-24T18:28:53.866Z,4.10
2023-02-24T18:31:24.332Z,3.97
2023-02-24T18:33:52.904Z,4.32
2023-02-24T18:36:21.007Z,3.42
2023-02-24T18:38:49.292Z,3.78
2023-02-24T18:41:19.836Z,3.30
2023-02-24T18:43:49.633Z,3.72
2023-02-24T18:46:18.542Z,3.60
2023-02-24T18:48:46.900Z,3.70
2023-02-24T18:51:17.116Z,3.47
2023-02-24T18:53:45.272Z,3.80
2023-02-24T18:56:16.618Z,3.20
2023-02-24T18:58:47.203Z,2.95
2023-02-24T19:01:17.853Z,2.92
2023-02-24T19:03:45.497Z,2.97
2023-02-24T19:06:14.435Z,2.80
2023-02-24T19:08:43.198Z,2.90
2023-02-24T19:11:12.096Z,2.90
2023-02-24T19:13:40.278Z,3.15
2023-02-24T19:16:09.942Z,3.30
2023-02-24T19:21:07.730Z,3.58
2023-02-24T19:26:03.142Z,2.97
2023-02-24T19:28:31.832Z,3.15
2023-02-24T19:30:59.596Z,4.07
2023-02-24T19:33:28.642Z,3.20
2023-02-24T19:35:59.743Z,3.38
2023-02-24T19:38:28.384Z,3.90
2023-02-24T19:40:59.029Z,5.93
2023-02-24T19:43:27.594Z,5.18
2023-02-24T19:45:55.330Z,5.30
2023-02-24T19:48:23.030Z,4.07
2023-02-24T19:50:52.640Z,4.32
2023-02-24T19:53:20.288Z,4.75
2023-02-24T19:55:50.156Z,4.32
2023-02-24T19:58:18.469Z,3.42
2023-02-24T20:00:46.182Z,4.10
2023-02-24T20:03:13.861Z,4.20
2023-02-24T20:05:41.534Z,3.45
2023-02-24T20:08:10.553Z,3.45
2023-02-24T20:10:38.395Z,3.50
2023-02-24T20:13:06.684Z,3.50
2023-02-24T20:15:35.882Z,3.70
2023-02-24T20:18:07.625Z,3.20
2023-02-24T20:20:36.759Z,3.40
2023-02-24T20:23:05.484Z,3.00
2023-02-24T20:25:34.847Z,9.37
2023-02-24T20:28:02.697Z,4.10
2023-02-24T20:30:30.381Z,4.32
2023-02-24T20:33:00.066Z,2.72
2023-02-24T20:37:56.026Z,3.25
2023-02-24T20:40:24.231Z,3.42
2023-02-24T20:42:53.242Z,3.95
2023-02-24T20:45:20.915Z,3.28
2023-02-24T20:47:48.611Z,4.88
2023-02-24T20:50:16.581Z,3.45
2023-02-24T20:52:44.211Z,3.38
2023-02-24T20:55:12.702Z,3.70
2023-02-24T20:57:40.493Z,4.95
2023-02-24T21:00:11.008Z,3.63
2023-02-24T21:02:41.514Z,3.83
2023-02-24T21:05:10.398Z,3.08
2023-02-24T21:07:38.112Z,3.53
2023-02-24T21:10:06.927Z,3.50
2023-02-24T21:12:34.593Z,3.33
2023-02-24T21:15:02.231Z,3.60
2023-02-24T21:17:34.610Z,3.55
2023-02-24T21:20:02.710Z,3.40
2023-02-24T21:22:31.201Z,3.72
2023-02-24T21:24:59.469Z,4.25
2023-02-24T21:27:27.260Z,3.13
2023-02-24T21:29:54.884Z,4.20
2023-02-24T21:32:22.840Z,4.13
2023-02-24T21:34:52.180Z,10.68
2023-02-24T21:37:19.813Z,3.70
2023-02-24T21:39:47.678Z,20.80
2023-02-24T21:42:15.316Z,9.75
2023-02-24T21:44:44.581Z,4.47
2023-02-24T21:47:12.613Z,3.88
2023-02-24T21:49:40.882Z,9.15
2023-02-24T21:52:11.457Z,3.88
2023-02-24T21:54:39.424Z,3.45
2023-02-24T21:57:07.071Z,2.97
2023-02-24T21:59:34.712Z,3.65
2023-02-24T22:02:02.733Z,8.48
2023-02-24T22:04:30.425Z,2.92
2023-02-24T22:06:58.062Z,3.28
2023-02-24T22:09:27.297Z,3.38
2023-02-24T22:11:54.960Z,5.38
2023-02-24T22:14:22.617Z,4.00
2023-02-24T22:16:50.560Z,3.38
2023-02-24T22:19:19.696Z,3.75
2023-02-24T22:21:47.514Z,3.28
2023-02-24T22:24:17.784Z,3.50
2023-02-24T22:26:46.833Z,4.32
2023-02-24T22:29:14.489Z,3.60
2023-02-24T22:31:44.044Z,5.30
2023-02-24T22:36:40.734Z,3.60
2023-02-24T22:39:09.748Z,3.28
2023-02-24T22:41:38.197Z,3.53
2023-02-24T22:44:07.632Z,3.90
2023-02-24T22:46:37.912Z,3.17
2023-02-24T22:49:06.315Z,3.65
2023-02-24T22:51:34.075Z,3.25
2023-02-24T22:54:02.414Z,3.40
2023-02-24T22:56:31.270Z,6.65
2023-02-24T22:59:00.494Z,5.13
2023-02-24T23:01:33.105Z,4.38
2023-02-24T23:04:01.461Z,4.35
2023-02-24T23:06:30.072Z,6.25
2023-02-24T23:08:59.962Z,8.05
2023-02-24T23:13:58.937Z,3.55
2023-02-24T23:16:32.117Z,4.53
2023-02-24T23:19:01.563Z,3.80
2023-02-24T23:21:35.304Z,3.67
2023-02-24T23:24:04.013Z,3.50
2023-02-24T23:26:34.150Z,4.53
2023-02-24T23:29:02.981Z,4.93
2023-02-24T23:31:33.628Z,5.35
2023-02-24T23:34:07.519Z,4.60
2023-02-24T23:36:36.094Z,5.70
2023-02-24T23:39:04.515Z,4.03
2023-02-24T23:41:32.671Z,5.53
2023-02-24T23:44:00.324Z,3.55
2023-02-24T23:46:29.643Z,3.47
2023-02-24T23:48:59.275Z,3.60
2023-02-24T23:54:10.524Z,4.72
2023-02-24T23:56:38.214Z,5.60
2023-02-24T23:59:05.865Z,3.60
